sensor_id;sensor_type;location;lat;lon;timestamp;temperature;humidity
59847;DHT22;45728;48.788;2.302;2023-04-21T00:02:08;7.30;99.90
59847;DHT22;45728;48.788;2.302;2023-04-21T00:04:35;7.30;99.90
59847;DHT22;45728;48.788;2.302;2023-04-21T00:07:01;7.10;99.90
59847;DHT22;45728;48.788;2.302;2023-04-21T00:09:29;7.10;99.90
59847;DHT22;45728;48.788;2.302;2023-04-21T00:11:55;7.20;99.90
59847;DHT22;45728;48.788;2.302;2023-04-21T00:14:21;7.20;99.90
59847;DHT22;45728;48.788;2.302;2023-04-21T00:16:47;7.20;99.90
59847;DHT22;45728;48.788;2.302;2023-04-21T00:19:17;7.20;99.90
59847;DHT22;45728;48.788;2.302;2023-04-21T00:21:44;7.20;99.90
59847;DHT22;45728;48.788;2.302;2023-04-21T00:24:10;7.20;99.90
59847;DHT22;45728;48.788;2.302;2023-04-21T00:26:37;7.10;99.90
59847;DHT22;45728;48.788;2.302;2023-04-21T00:29:03;7.10;99.90
59847;DHT22;45728;48.788;2.302;2023-04-21T00:31:29;7.10;99.90
59847;DHT22;45728;48.788;2.302;2023-04-21T00:33:55;7.10;99.90
59847;DHT22;45728;48.788;2.302;2023-04-21T00:36:21;7.10;99.90
59847;DHT22;45728;48.788;2.302;2023-04-21T00:38:49;7.20;99.90
59847;DHT22;45728;48.788;2.302;2023-04-21T00:41:15;7.10;99.90
59847;DHT22;45728;48.788;2.302;2023-04-21T00:44:04;7.20;99.90
59847;DHT22;45728;48.788;2.302;2023-04-21T00:46:31;7.30;99.90
59847;DHT22;45728;48.788;2.302;2023-04-21T00:48:58;7.30;99.90
59847;DHT22;45728;48.788;2.302;2023-04-21T00:51:25;7.30;99.90
59847;DHT22;45728;48.788;2.302;2023-04-21T00:53:53;7.20;99.90
59847;DHT22;45728;48.788;2.302;2023-04-21T00:56:21;7.20;99.90
59847;DHT22;45728;48.788;2.302;2023-04-21T00:58:47;7.20;99.90
59847;DHT22;45728;48.788;2.302;2023-04-21T01:01:14;7.20;99.90
59847;DHT22;45728;48.788;2.302;2023-04-21T01:03:40;7.10;99.90
59847;DHT22;45728;48.788;2.302;2023-04-21T01:06:07;7.10;99.90
59847;DHT22;45728;48.788;2.302;2023-04-21T01:08:33;7.20;99.90
59847;DHT22;45728;48.788;2.302;2023-04-21T01:11:08;7.20;99.90
59847;DHT22;45728;48.788;2.302;2023-04-21T01:13:35;7.10;99.90
59847;DHT22;45728;48.788;2.302;2023-04-21T01:16:02;7.00;99.90
59847;DHT22;45728;48.788;2.302;2023-04-21T01:18:28;7.00;99.90
59847;DHT22;45728;48.788;2.302;2023-04-21T01:20:54;7.00;99.90
59847;DHT22;45728;48.788;2.302;2023-04-21T01:23:20;7.00;99.90
59847;DHT22;45728;48.788;2.302;2023-04-21T01:25:46;7.00;99.90
59847;DHT22;45728;48.788;2.302;2023-04-21T01:28:12;6.90;99.90
59847;DHT22;45728;48.788;2.302;2023-04-21T01:30:38;6.90;99.90
59847;DHT22;45728;48.788;2.302;2023-04-21T01:33:04;6.80;99.90
59847;DHT22;45728;48.788;2.302;2023-04-21T01:35:30;6.80;99.90
59847;DHT22;45728;48.788;2.302;2023-04-21T01:37:56;6.80;99.90
59847;DHT22;45728;48.788;2.302;2023-04-21T01:40:23;6.70;99.90
59847;DHT22;45728;48.788;2.302;2023-04-21T01:42:49;6.80;99.90
59847;DHT22;45728;48.788;2.302;2023-04-21T01:45:15;6.80;99.90
59847;DHT22;45728;48.788;2.302;2023-04-21T01:47:41;6.70;99.90
59847;DHT22;45728;48.788;2.302;2023-04-21T01:50:07;6.70;99.90
59847;DHT22;45728;48.788;2.302;2023-04-21T01:52:34;6.70;99.90
59847;DHT22;45728;48.788;2.302;2023-04-21T01:55:01;6.70;99.90
59847;DHT22;45728;48.788;2.302;2023-04-21T01:57:27;6.70;99.90
59847;DHT22;45728;48.788;2.302;2023-04-21T01:59:53;6.70;99.90
59847;DHT22;45728;48.788;2.302;2023-04-21T02:02:19;6.70;99.90
59847;DHT22;45728;48.788;2.302;2023-04-21T02:04:45;6.70;99.90
59847;DHT22;45728;48.788;2.302;2023-04-21T02:07:11;6.70;99.90
59847;DHT22;45728;48.788;2.302;2023-04-21T02:09:37;6.90;99.90
59847;DHT22;45728;48.788;2.302;2023-04-21T02:12:03;6.80;99.90
59847;DHT22;45728;48.788;2.302;2023-04-21T02:14:30;6.70;99.90
59847;DHT22;45728;48.788;2.302;2023-04-21T02:16:56;6.70;99.90
59847;DHT22;45728;48.788;2.302;2023-04-21T02:19:22;6.50;99.90
59847;DHT22;45728;48.788;2.302;2023-04-21T02:21:49;6.50;99.90
59847;DHT22;45728;48.788;2.302;2023-04-21T02:24:15;6.50;99.90
59847;DHT22;45728;48.788;2.302;2023-04-21T02:26:41;6.50;99.90
59847;DHT22;45728;48.788;2.302;2023-04-21T02:29:07;6.70;99.90
59847;DHT22;45728;48.788;2.302;2023-04-21T02:31:33;6.60;99.90
59847;DHT22;45728;48.788;2.302;2023-04-21T02:33:59;6.70;99.90
59847;DHT22;45728;48.788;2.302;2023-04-21T02:36:25;6.70;99.90
59847;DHT22;45728;48.788;2.302;2023-04-21T02:38:51;6.80;99.90
59847;DHT22;45728;48.788;2.302;2023-04-21T02:41:17;6.80;99.90
59847;DHT22;45728;48.788;2.302;2023-04-21T02:43:43;6.90;99.90
59847;DHT22;45728;48.788;2.302;2023-04-21T02:46:09;6.80;99.90
59847;DHT22;45728;48.788;2.302;2023-04-21T02:48:35;6.70;99.90
59847;DHT22;45728;48.788;2.302;2023-04-21T02:51:02;6.70;99.90
59847;DHT22;45728;48.788;2.302;2023-04-21T02:53:29;6.70;99.90
59847;DHT22;45728;48.788;2.302;2023-04-21T02:55:55;6.70;99.90
59847;DHT22;45728;48.788;2.302;2023-04-21T02:58:22;6.70;99.90
59847;DHT22;45728;48.788;2.302;2023-04-21T03:00:48;6.80;99.90
59847;DHT22;45728;48.788;2.302;2023-04-21T03:03:14;6.80;99.90
59847;DHT22;45728;48.788;2.302;2023-04-21T03:05:41;6.90;99.90
59847;DHT22;45728;48.788;2.302;2023-04-21T03:08:07;6.90;99.90
59847;DHT22;45728;48.788;2.302;2023-04-21T03:10:33;7.00;99.90
59847;DHT22;45728;48.788;2.302;2023-04-21T03:13:01;6.90;99.90
59847;DHT22;45728;48.788;2.302;2023-04-21T03:15:27;6.80;99.90
59847;DHT22;45728;48.788;2.302;2023-04-21T03:17:53;6.60;99.90
59847;DHT22;45728;48.788;2.302;2023-04-21T03:20:19;6.60;99.90
59847;DHT22;45728;48.788;2.302;2023-04-21T03:22:45;6.60;99.90
59847;DHT22;45728;48.788;2.302;2023-04-21T03:25:11;6.70;99.90
59847;DHT22;45728;48.788;2.302;2023-04-21T03:27:37;6.80;99.90
59847;DHT22;45728;48.788;2.302;2023-04-21T03:30:04;6.80;99.90
59847;DHT22;45728;48.788;2.302;2023-04-21T03:32:31;6.90;99.90
59847;DHT22;45728;48.788;2.302;2023-04-21T03:34:57;6.80;99.90
59847;DHT22;45728;48.788;2.302;2023-04-21T03:37:23;6.70;99.90
59847;DHT22;45728;48.788;2.302;2023-04-21T03:39:49;6.80;99.90
59847;DHT22;45728;48.788;2.302;2023-04-21T03:42:15;6.70;99.90
59847;DHT22;45728;48.788;2.302;2023-04-21T03:44:41;6.80;99.90
59847;DHT22;45728;48.788;2.302;2023-04-21T03:47:07;6.90;99.90
59847;DHT22;45728;48.788;2.302;2023-04-21T03:49:33;6.90;99.90
59847;DHT22;45728;48.788;2.302;2023-04-21T03:52:00;7.00;99.90
59847;DHT22;45728;48.788;2.302;2023-04-21T03:54:26;7.10;99.90
59847;DHT22;45728;48.788;2.302;2023-04-21T03:56:52;7.10;99.90
59847;DHT22;45728;48.788;2.302;2023-04-21T03:59:19;7.20;99.90
59847;DHT22;45728;48.788;2.302;2023-04-21T04:01:45;7.10;99.90
59847;DHT22;45728;48.788;2.302;2023-04-21T04:04:11;7.10;99.90
59847;DHT22;45728;48.788;2.302;2023-04-21T04:06:37;7.20;99.90
59847;DHT22;45728;48.788;2.302;2023-04-21T04:09:03;7.30;99.90
59847;DHT22;45728;48.788;2.302;2023-04-21T04:11:30;7.20;99.90
59847;DHT22;45728;48.788;2.302;2023-04-21T04:13:57;7.30;99.90
59847;DHT22;45728;48.788;2.302;2023-04-21T04:16:23;7.30;99.90
59847;DHT22;45728;48.788;2.302;2023-04-21T04:18:49;7.30;99.90
59847;DHT22;45728;48.788;2.302;2023-04-21T04:21:16;7.30;99.90
59847;DHT22;45728;48.788;2.302;2023-04-21T04:23:42;7.30;99.90
59847;DHT22;45728;48.788;2.302;2023-04-21T04:26:09;7.30;99.90
59847;DHT22;45728;48.788;2.302;2023-04-21T04:28:36;7.40;99.90
59847;DHT22;45728;48.788;2.302;2023-04-21T04:31:02;7.40;99.90
59847;DHT22;45728;48.788;2.302;2023-04-21T04:33:28;7.20;99.90
59847;DHT22;45728;48.788;2.302;2023-04-21T04:35:54;7.20;99.90
59847;DHT22;45728;48.788;2.302;2023-04-21T04:38:20;7.30;99.90
59847;DHT22;45728;48.788;2.302;2023-04-21T04:40:54;7.20;99.90
59847;DHT22;45728;48.788;2.302;2023-04-21T04:43:22;7.30;99.90
59847;DHT22;45728;48.788;2.302;2023-04-21T04:45:48;7.30;99.90
59847;DHT22;45728;48.788;2.302;2023-04-21T04:48:15;7.20;99.90
59847;DHT22;45728;48.788;2.302;2023-04-21T04:50:41;7.10;99.90
59847;DHT22;45728;48.788;2.302;2023-04-21T04:53:07;7.10;99.90
59847;DHT22;45728;48.788;2.302;2023-04-21T04:55:33;7.10;99.90
59847;DHT22;45728;48.788;2.302;2023-04-21T04:57:59;7.00;99.90
59847;DHT22;45728;48.788;2.302;2023-04-21T05:00:26;7.00;99.90
59847;DHT22;45728;48.788;2.302;2023-04-21T05:02:54;7.00;99.90
59847;DHT22;45728;48.788;2.302;2023-04-21T05:05:20;6.90;99.90
59847;DHT22;45728;48.788;2.302;2023-04-21T05:07:49;7.00;99.90
59847;DHT22;45728;48.788;2.302;2023-04-21T05:10:16;7.00;99.90
59847;DHT22;45728;48.788;2.302;2023-04-21T05:12:42;7.00;99.90
59847;DHT22;45728;48.788;2.302;2023-04-21T05:15:08;6.90;99.90
59847;DHT22;45728;48.788;2.302;2023-04-21T05:17:34;6.80;99.90
59847;DHT22;45728;48.788;2.302;2023-04-21T05:20:00;6.90;99.90
59847;DHT22;45728;48.788;2.302;2023-04-21T05:22:26;6.90;99.90
59847;DHT22;45728;48.788;2.302;2023-04-21T05:24:52;7.00;99.90
59847;DHT22;45728;48.788;2.302;2023-04-21T05:27:18;7.10;99.90
59847;DHT22;45728;48.788;2.302;2023-04-21T05:29:44;7.10;99.90
59847;DHT22;45728;48.788;2.302;2023-04-21T05:32:11;7.20;99.90
59847;DHT22;45728;48.788;2.302;2023-04-21T05:34:37;7.20;99.90
59847;DHT22;45728;48.788;2.302;2023-04-21T05:37:03;7.30;99.90
59847;DHT22;45728;48.788;2.302;2023-04-21T05:39:30;7.20;99.90
59847;DHT22;45728;48.788;2.302;2023-04-21T05:41:56;7.10;99.90
59847;DHT22;45728;48.788;2.302;2023-04-21T05:44:22;7.10;99.90
59847;DHT22;45728;48.788;2.302;2023-04-21T05:46:50;7.10;99.90
59847;DHT22;45728;48.788;2.302;2023-04-21T05:49:16;7.20;99.90
59847;DHT22;45728;48.788;2.302;2023-04-21T05:51:42;7.20;99.90
59847;DHT22;45728;48.788;2.302;2023-04-21T05:54:08;7.30;99.90
59847;DHT22;45728;48.788;2.302;2023-04-21T05:56:34;7.20;99.90
59847;DHT22;45728;48.788;2.302;2023-04-21T05:59:00;7.30;99.90
59847;DHT22;45728;48.788;2.302;2023-04-21T06:01:26;7.40;99.90
59847;DHT22;45728;48.788;2.302;2023-04-21T06:03:52;7.30;99.90
59847;DHT22;45728;48.788;2.302;2023-04-21T06:06:18;7.30;99.90
59847;DHT22;45728;48.788;2.302;2023-04-21T06:08:45;7.30;99.90
59847;DHT22;45728;48.788;2.302;2023-04-21T06:11:11;7.30;99.90
59847;DHT22;45728;48.788;2.302;2023-04-21T06:13:37;7.40;99.90
59847;DHT22;45728;48.788;2.302;2023-04-21T06:16:03;7.40;99.90
59847;DHT22;45728;48.788;2.302;2023-04-21T06:18:30;7.40;99.90
59847;DHT22;45728;48.788;2.302;2023-04-21T06:20:56;7.30;99.90
59847;DHT22;45728;48.788;2.302;2023-04-21T06:23:22;7.40;99.90
59847;DHT22;45728;48.788;2.302;2023-04-21T06:26:08;7.40;99.90
59847;DHT22;45728;48.788;2.302;2023-04-21T06:28:35;7.50;99.90
59847;DHT22;45728;48.788;2.302;2023-04-21T06:31:02;7.60;99.90
59847;DHT22;45728;48.788;2.302;2023-04-21T06:33:29;7.60;99.90
59847;DHT22;45728;48.788;2.302;2023-04-21T06:35:55;7.60;99.90
59847;DHT22;45728;48.788;2.302;2023-04-21T06:38:21;7.50;99.90
59847;DHT22;45728;48.788;2.302;2023-04-21T06:40:47;7.60;99.90
59847;DHT22;45728;48.788;2.302;2023-04-21T06:43:14;7.90;99.90
59847;DHT22;45728;48.788;2.302;2023-04-21T06:45:40;8.00;99.90
59847;DHT22;45728;48.788;2.302;2023-04-21T06:48:06;8.00;99.90
59847;DHT22;45728;48.788;2.302;2023-04-21T06:50:32;7.80;99.90
59847;DHT22;45728;48.788;2.302;2023-04-21T06:52:58;7.70;99.90
59847;DHT22;45728;48.788;2.302;2023-04-21T06:55:24;7.60;99.90
59847;DHT22;45728;48.788;2.302;2023-04-21T06:57:50;7.50;99.90
59847;DHT22;45728;48.788;2.302;2023-04-21T07:00:16;7.60;99.90
59847;DHT22;45728;48.788;2.302;2023-04-21T07:02:43;7.60;99.90
59847;DHT22;45728;48.788;2.302;2023-04-21T07:05:09;7.80;99.90
59847;DHT22;45728;48.788;2.302;2023-04-21T07:07:35;7.90;99.90
59847;DHT22;45728;48.788;2.302;2023-04-21T07:10:01;8.00;99.90
59847;DHT22;45728;48.788;2.302;2023-04-21T07:12:27;8.30;99.90
59847;DHT22;45728;48.788;2.302;2023-04-21T07:14:53;8.50;99.90
59847;DHT22;45728;48.788;2.302;2023-04-21T07:17:19;8.70;99.90
59847;DHT22;45728;48.788;2.302;2023-04-21T07:19:45;8.90;99.90
59847;DHT22;45728;48.788;2.302;2023-04-21T07:22:11;9.00;99.90
59847;DHT22;45728;48.788;2.302;2023-04-21T07:24:37;9.20;99.90
59847;DHT22;45728;48.788;2.302;2023-04-21T07:27:04;9.20;99.90
59847;DHT22;45728;48.788;2.302;2023-04-21T07:29:30;8.80;99.90
59847;DHT22;45728;48.788;2.302;2023-04-21T07:31:57;8.30;99.90
59847;DHT22;45728;48.788;2.302;2023-04-21T07:34:24;8.30;99.90
59847;DHT22;45728;48.788;2.302;2023-04-21T07:36:51;8.50;99.90
59847;DHT22;45728;48.788;2.302;2023-04-21T07:39:17;8.40;99.90
59847;DHT22;45728;48.788;2.302;2023-04-21T07:41:43;8.60;99.90
59847;DHT22;45728;48.788;2.302;2023-04-21T07:44:09;8.60;99.90
59847;DHT22;45728;48.788;2.302;2023-04-21T07:46:35;8.70;99.90
59847;DHT22;45728;48.788;2.302;2023-04-21T07:49:01;8.90;99.90
59847;DHT22;45728;48.788;2.302;2023-04-21T07:51:27;9.20;99.90
59847;DHT22;45728;48.788;2.302;2023-04-21T07:53:53;9.30;99.90
59847;DHT22;45728;48.788;2.302;2023-04-21T07:56:19;9.00;99.90
59847;DHT22;45728;48.788;2.302;2023-04-21T07:58:45;8.70;99.90
59847;DHT22;45728;48.788;2.302;2023-04-21T08:01:12;8.90;99.90
59847;DHT22;45728;48.788;2.302;2023-04-21T08:03:38;9.10;99.90
59847;DHT22;45728;48.788;2.302;2023-04-21T08:06:04;9.30;99.90
59847;DHT22;45728;48.788;2.302;2023-04-21T08:08:30;9.60;99.90
59847;DHT22;45728;48.788;2.302;2023-04-21T08:10:56;9.30;99.90
59847;DHT22;45728;48.788;2.302;2023-04-21T08:13:23;8.90;99.90
59847;DHT22;45728;48.788;2.302;2023-04-21T08:15:51;8.90;99.90
59847;DHT22;45728;48.788;2.302;2023-04-21T08:18:17;9.00;99.90
59847;DHT22;45728;48.788;2.302;2023-04-21T08:20:46;8.90;99.90
59847;DHT22;45728;48.788;2.302;2023-04-21T08:23:14;8.90;99.90
59847;DHT22;45728;48.788;2.302;2023-04-21T08:25:40;8.80;99.90
59847;DHT22;45728;48.788;2.302;2023-04-21T08:28:06;8.60;99.90
59847;DHT22;45728;48.788;2.302;2023-04-21T08:30:32;8.60;99.90
59847;DHT22;45728;48.788;2.302;2023-04-21T08:32:58;8.80;99.90
59847;DHT22;45728;48.788;2.302;2023-04-21T08:35:24;8.70;99.90
59847;DHT22;45728;48.788;2.302;2023-04-21T08:37:50;8.80;99.90
59847;DHT22;45728;48.788;2.302;2023-04-21T08:40:17;9.00;99.90
59847;DHT22;45728;48.788;2.302;2023-04-21T08:42:44;9.00;99.90
59847;DHT22;45728;48.788;2.302;2023-04-21T08:45:10;9.00;99.90
59847;DHT22;45728;48.788;2.302;2023-04-21T08:47:40;9.00;99.90
59847;DHT22;45728;48.788;2.302;2023-04-21T08:50:06;9.00;99.90
59847;DHT22;45728;48.788;2.302;2023-04-21T08:52:36;9.20;99.90
59847;DHT22;45728;48.788;2.302;2023-04-21T08:55:02;9.20;99.90
59847;DHT22;45728;48.788;2.302;2023-04-21T08:57:29;9.20;99.90
59847;DHT22;45728;48.788;2.302;2023-04-21T08:59:56;9.30;99.90
59847;DHT22;45728;48.788;2.302;2023-04-21T09:02:22;9.30;99.90
59847;DHT22;45728;48.788;2.302;2023-04-21T09:04:49;9.20;99.90
59847;DHT22;45728;48.788;2.302;2023-04-21T09:07:31;9.20;99.90
59847;DHT22;45728;48.788;2.302;2023-04-21T09:09:57;9.40;99.90
59847;DHT22;45728;48.788;2.302;2023-04-21T09:12:25;9.50;99.90
59847;DHT22;45728;48.788;2.302;2023-04-21T09:14:52;9.40;99.90
59847;DHT22;45728;48.788;2.302;2023-04-21T09:17:21;9.50;99.90
59847;DHT22;45728;48.788;2.302;2023-04-21T09:19:52;9.60;99.90
59847;DHT22;45728;48.788;2.302;2023-04-21T09:22:18;9.80;99.90
59847;DHT22;45728;48.788;2.302;2023-04-21T09:24:45;9.90;99.90
59847;DHT22;45728;48.788;2.302;2023-04-21T09:27:14;9.80;99.90
59847;DHT22;45728;48.788;2.302;2023-04-21T09:29:45;9.70;99.90
59847;DHT22;45728;48.788;2.302;2023-04-21T09:32:16;9.60;99.90
59847;DHT22;45728;48.788;2.302;2023-04-21T09:34:43;9.60;99.90
59847;DHT22;45728;48.788;2.302;2023-04-21T09:37:10;9.70;99.90
59847;DHT22;45728;48.788;2.302;2023-04-21T09:39:37;9.80;99.90
59847;DHT22;45728;48.788;2.302;2023-04-21T09:42:03;9.90;99.90
59847;DHT22;45728;48.788;2.302;2023-04-21T09:44:30;9.90;99.90
59847;DHT22;45728;48.788;2.302;2023-04-21T09:47:03;9.90;99.90
59847;DHT22;45728;48.788;2.302;2023-04-21T09:49:33;10.30;99.90
59847;DHT22;45728;48.788;2.302;2023-04-21T09:52:01;10.50;99.90
59847;DHT22;45728;48.788;2.302;2023-04-21T09:54:31;10.80;99.90
59847;DHT22;45728;48.788;2.302;2023-04-21T09:57:00;11.00;99.90
59847;DHT22;45728;48.788;2.302;2023-04-21T09:59:37;11.10;99.90
59847;DHT22;45728;48.788;2.302;2023-04-21T10:02:06;10.80;99.90
59847;DHT22;45728;48.788;2.302;2023-04-21T10:04:33;10.50;99.90
59847;DHT22;45728;48.788;2.302;2023-04-21T10:07:01;10.60;99.90
59847;DHT22;45728;48.788;2.302;2023-04-21T10:09:34;10.70;99.90
59847;DHT22;45728;48.788;2.302;2023-04-21T10:12:03;10.90;99.90
59847;DHT22;45728;48.788;2.302;2023-04-21T10:14:29;11.00;99.90
59847;DHT22;45728;48.788;2.302;2023-04-21T10:17:00;11.00;99.90
59847;DHT22;45728;48.788;2.302;2023-04-21T10:19:28;11.30;99.90
59847;DHT22;45728;48.788;2.302;2023-04-21T10:21:55;11.60;99.90
59847;DHT22;45728;48.788;2.302;2023-04-21T10:24:22;11.70;99.90
59847;DHT22;45728;48.788;2.302;2023-04-21T10:26:51;12.20;99.90
59847;DHT22;45728;48.788;2.302;2023-04-21T10:29:28;12.80;99.90
59847;DHT22;45728;48.788;2.302;2023-04-21T10:31:55;12.80;99.90
59847;DHT22;45728;48.788;2.302;2023-04-21T10:34:35;12.80;99.90
59847;DHT22;45728;48.788;2.302;2023-04-21T10:39:51;12.50;99.90
59847;DHT22;45728;48.788;2.302;2023-04-21T10:42:20;12.20;99.90
59847;DHT22;45728;48.788;2.302;2023-04-21T10:47:28;12.10;99.90
59847;DHT22;45728;48.788;2.302;2023-04-21T10:49:57;11.80;99.90
59847;DHT22;45728;48.788;2.302;2023-04-21T10:52:31;12.20;99.90
59847;DHT22;45728;48.788;2.302;2023-04-21T10:57:30;13.00;99.90
59847;DHT22;45728;48.788;2.302;2023-04-21T10:59:57;13.30;99.90
59847;DHT22;45728;48.788;2.302;2023-04-21T11:02:23;13.20;99.90
59847;DHT22;45728;48.788;2.302;2023-04-21T11:04:51;13.40;99.90
59847;DHT22;45728;48.788;2.302;2023-04-21T11:07:24;13.60;99.90
59847;DHT22;45728;48.788;2.302;2023-04-21T11:09:58;13.70;99.90
59847;DHT22;45728;48.788;2.302;2023-04-21T11:12:29;13.80;99.90
59847;DHT22;45728;48.788;2.302;2023-04-21T11:14:56;13.80;99.90
59847;DHT22;45728;48.788;2.302;2023-04-21T11:17:23;13.40;99.90
59847;DHT22;45728;48.788;2.302;2023-04-21T11:19:54;14.30;99.90
59847;DHT22;45728;48.788;2.302;2023-04-21T11:22:25;14.80;99.90
59847;DHT22;45728;48.788;2.302;2023-04-21T11:27:56;14.60;99.90
59847;DHT22;45728;48.788;2.302;2023-04-21T11:30:33;13.90;99.90
59847;DHT22;45728;48.788;2.302;2023-04-21T11:33:00;13.90;99.90
59847;DHT22;45728;48.788;2.302;2023-04-21T11:35:26;14.50;99.90
59847;DHT22;45728;48.788;2.302;2023-04-21T11:37:54;15.00;99.90
59847;DHT22;45728;48.788;2.302;2023-04-21T11:40:20;14.20;99.80
59847;DHT22;45728;48.788;2.302;2023-04-21T11:42:47;13.30;99.90
59847;DHT22;45728;48.788;2.302;2023-04-21T11:45:17;13.50;99.90
59847;DHT22;45728;48.788;2.302;2023-04-21T11:47:44;12.90;99.90
59847;DHT22;45728;48.788;2.302;2023-04-21T11:50:10;12.20;99.90
59847;DHT22;45728;48.788;2.302;2023-04-21T11:52:37;12.20;99.90
59847;DHT22;45728;48.788;2.302;2023-04-21T11:55:07;12.40;99.90
59847;DHT22;45728;48.788;2.302;2023-04-21T11:57:36;12.40;99.90
59847;DHT22;45728;48.788;2.302;2023-04-21T12:00:05;12.50;99.90
59847;DHT22;45728;48.788;2.302;2023-04-21T12:02:32;12.70;99.90
59847;DHT22;45728;48.788;2.302;2023-04-21T12:05:09;12.50;99.90
59847;DHT22;45728;48.788;2.302;2023-04-21T12:07:45;12.10;99.90
59847;DHT22;45728;48.788;2.302;2023-04-21T12:10:15;12.10;99.90
59847;DHT22;45728;48.788;2.302;2023-04-21T12:12:42;12.10;99.90
59847;DHT22;45728;48.788;2.302;2023-04-21T12:15:10;12.30;99.90
59847;DHT22;45728;48.788;2.302;2023-04-21T12:17:44;12.50;99.90
59847;DHT22;45728;48.788;2.302;2023-04-21T12:20:11;12.10;99.90
59847;DHT22;45728;48.788;2.302;2023-04-21T12:22:38;12.30;99.90
59847;DHT22;45728;48.788;2.302;2023-04-21T12:25:04;12.70;99.90
59847;DHT22;45728;48.788;2.302;2023-04-21T12:27:30;12.70;99.90
59847;DHT22;45728;48.788;2.302;2023-04-21T12:29:56;13.20;99.90
59847;DHT22;45728;48.788;2.302;2023-04-21T12:32:23;13.50;99.90
59847;DHT22;45728;48.788;2.302;2023-04-21T12:34:49;13.60;99.90
59847;DHT22;45728;48.788;2.302;2023-04-21T12:37:15;14.10;99.90
59847;DHT22;45728;48.788;2.302;2023-04-21T12:39:41;14.20;99.80
59847;DHT22;45728;48.788;2.302;2023-04-21T12:42:07;14.00;99.90
59847;DHT22;45728;48.788;2.302;2023-04-21T12:44:34;13.90;99.90
59847;DHT22;45728;48.788;2.302;2023-04-21T12:47:00;13.90;99.90
59847;DHT22;45728;48.788;2.302;2023-04-21T12:49:26;13.30;99.90
59847;DHT22;45728;48.788;2.302;2023-04-21T12:51:52;13.10;99.90
59847;DHT22;45728;48.788;2.302;2023-04-21T12:54:18;13.80;99.90
59847;DHT22;45728;48.788;2.302;2023-04-21T12:56:44;14.00;99.20
59847;DHT22;45728;48.788;2.302;2023-04-21T12:59:11;14.10;99.10
59847;DHT22;45728;48.788;2.302;2023-04-21T13:01:38;14.00;99.40
59847;DHT22;45728;48.788;2.302;2023-04-21T13:04:04;14.30;99.30
59847;DHT22;45728;48.788;2.302;2023-04-21T13:06:31;14.50;99.20
59847;DHT22;45728;48.788;2.302;2023-04-21T13:08:58;14.70;99.90
59847;DHT22;45728;48.788;2.302;2023-04-21T13:11:24;14.50;98.50
59847;DHT22;45728;48.788;2.302;2023-04-21T13:13:50;13.40;99.50
59847;DHT22;45728;48.788;2.302;2023-04-21T13:16:16;13.30;99.40
59847;DHT22;45728;48.788;2.302;2023-04-21T13:18:44;13.20;99.30
59847;DHT22;45728;48.788;2.302;2023-04-21T13:21:11;12.90;99.60
59847;DHT22;45728;48.788;2.302;2023-04-21T13:23:37;12.90;99.50
59847;DHT22;45728;48.788;2.302;2023-04-21T13:26:03;12.70;99.80
59847;DHT22;45728;48.788;2.302;2023-04-21T13:28:29;12.70;99.90
59847;DHT22;45728;48.788;2.302;2023-04-21T13:30:56;12.80;99.60
59847;DHT22;45728;48.788;2.302;2023-04-21T13:33:23;12.80;99.70
59847;DHT22;45728;48.788;2.302;2023-04-21T13:35:49;13.10;99.90
59847;DHT22;45728;48.788;2.302;2023-04-21T13:38:16;13.40;99.40
59847;DHT22;45728;48.788;2.302;2023-04-21T13:40:42;13.50;99.30
59847;DHT22;45728;48.788;2.302;2023-04-21T13:43:08;13.60;98.80
59847;DHT22;45728;48.788;2.302;2023-04-21T13:45:34;13.30;99.10
59847;DHT22;45728;48.788;2.302;2023-04-21T13:48:00;13.40;99.10
59847;DHT22;45728;48.788;2.302;2023-04-21T13:50:26;13.60;99.00
59847;DHT22;45728;48.788;2.302;2023-04-21T13:52:52;13.50;99.10
59847;DHT22;45728;48.788;2.302;2023-04-21T13:55:19;13.90;99.30
59847;DHT22;45728;48.788;2.302;2023-04-21T13:57:46;14.50;99.20
59847;DHT22;45728;48.788;2.302;2023-04-21T14:00:12;14.90;98.50
59847;DHT22;45728;48.788;2.302;2023-04-21T14:02:39;15.00;97.90
59847;DHT22;45728;48.788;2.302;2023-04-21T14:05:06;15.00;97.60
59847;DHT22;45728;48.788;2.302;2023-04-21T14:07:32;14.90;97.80
59847;DHT22;45728;48.788;2.302;2023-04-21T14:10:00;15.00;98.10
59847;DHT22;45728;48.788;2.302;2023-04-21T14:12:26;15.00;97.70
59847;DHT22;45728;48.788;2.302;2023-04-21T14:14:52;15.10;97.30
59847;DHT22;45728;48.788;2.302;2023-04-21T14:17:19;15.10;97.70
59847;DHT22;45728;48.788;2.302;2023-04-21T14:19:45;15.20;97.10
59847;DHT22;45728;48.788;2.302;2023-04-21T14:22:12;15.20;96.90
59847;DHT22;45728;48.788;2.302;2023-04-21T14:24:38;15.00;97.00
59847;DHT22;45728;48.788;2.302;2023-04-21T14:27:04;15.30;96.90
59847;DHT22;45728;48.788;2.302;2023-04-21T14:29:30;15.30;97.20
59847;DHT22;45728;48.788;2.302;2023-04-21T14:31:57;15.30;96.60
59847;DHT22;45728;48.788;2.302;2023-04-21T14:34:24;15.40;96.90
59847;DHT22;45728;48.788;2.302;2023-04-21T14:36:53;15.40;96.30
59847;DHT22;45728;48.788;2.302;2023-04-21T14:39:19;15.60;96.80
59847;DHT22;45728;48.788;2.302;2023-04-21T14:41:45;15.60;96.40
59847;DHT22;45728;48.788;2.302;2023-04-21T14:44:11;15.50;96.10
59847;DHT22;45728;48.788;2.302;2023-04-21T14:46:37;15.30;96.30
59847;DHT22;45728;48.788;2.302;2023-04-21T14:49:04;15.60;96.30
59847;DHT22;45728;48.788;2.302;2023-04-21T14:51:30;15.80;96.30
59847;DHT22;45728;48.788;2.302;2023-04-21T14:53:56;15.80;95.50
59847;DHT22;45728;48.788;2.302;2023-04-21T14:56:22;15.70;95.40
59847;DHT22;45728;48.788;2.302;2023-04-21T14:58:48;15.80;96.50
59847;DHT22;45728;48.788;2.302;2023-04-21T15:01:14;15.70;95.50
59847;DHT22;45728;48.788;2.302;2023-04-21T15:03:41;15.70;95.50
59847;DHT22;45728;48.788;2.302;2023-04-21T15:06:07;15.70;95.30
59847;DHT22;45728;48.788;2.302;2023-04-21T15:08:33;15.80;95.40
59847;DHT22;45728;48.788;2.302;2023-04-21T15:10:59;16.00;95.90
59847;DHT22;45728;48.788;2.302;2023-04-21T15:13:25;16.20;95.70
59847;DHT22;45728;48.788;2.302;2023-04-21T15:15:52;16.20;95.60
59847;DHT22;45728;48.788;2.302;2023-04-21T15:18:18;16.20;95.40
59847;DHT22;45728;48.788;2.302;2023-04-21T15:20:45;15.90;95.30
59847;DHT22;45728;48.788;2.302;2023-04-21T15:23:12;15.20;95.80
59847;DHT22;45728;48.788;2.302;2023-04-21T15:25:38;15.30;95.80
59847;DHT22;45728;48.788;2.302;2023-04-21T15:28:05;14.80;95.80
59847;DHT22;45728;48.788;2.302;2023-04-21T15:30:32;14.50;96.20
59847;DHT22;45728;48.788;2.302;2023-04-21T15:32:58;14.40;96.40
59847;DHT22;45728;48.788;2.302;2023-04-21T15:35:26;14.50;96.00
59847;DHT22;45728;48.788;2.302;2023-04-21T15:37:52;14.40;96.20
59847;DHT22;45728;48.788;2.302;2023-04-21T15:40:18;14.50;96.10
59847;DHT22;45728;48.788;2.302;2023-04-21T15:43:09;14.50;96.00
59847;DHT22;45728;48.788;2.302;2023-04-21T15:45:36;14.80;96.10
59847;DHT22;45728;48.788;2.302;2023-04-21T15:48:02;15.10;95.80
59847;DHT22;45728;48.788;2.302;2023-04-21T15:50:28;15.10;95.40